Latest Coastal Weather Observations for Coffs Harbour

IDN60701

Issued at 6:15 am EDT Saturday 1 November 2014 (issued every 10 minutes, with the page automatically refreshed every 10 minutes)

About coastal observations | Map of coastal stations | Coastal observations for NSW | Marine services | Other Formats
Station Details ID: 059040 Name: COFFS HARBOUR MO Lat: -30.31 Lon: 153.12 Height: 5.0 m
Data from the previous 72 hours. | See also: Recent months at Coffs Harbour
Date/Time
EDT
Temp

°C
Wind Pressure Rain
since 9am
mm
Weather Cloud Vis
km
Sea
Height
m
Swell
Dir
 
Speed
knots
Gust
knots
hPa Trend Height
m
Period
s
Dir
01/06:00am 22.2 NE 5 7 1011.4 - 0.0 - Partly cloudy 10 - - - -
01/05:30am 23.6 NNW 12 17 1010.8 - 0.0 - Partly cloudy 10 - - - -
01/05:00am 22.2 NNE 11 15 1010.9 - 0.0 - Partly cloudy 10 - - - -
01/04:30am 22.0 NNE 13 17 1009.7 - 0.0 - - 10 - - - -
01/04:00am 22.2 NE 16 22 1009.6 - 0.0 - - 10 - - - -
01/03:30am 22.6 NE 9 13 1009.9 - 0.0 - - 10 - - - -
01/03:00am 22.6 NNE 6 8 1010.7 - 0.0 - - 10 - - - -
01/02:30am 23.3 NNE 11 15 1010.5 - 0.0 - - 10 - - - -
01/02:00am 23.0 NNE 12 18 1010.5 - 0.0 - - 10 - - - -
01/01:30am 22.2 NNE 11 14 1010.9 - 0.0 - - 10 - - - -
01/01:00am 21.2 NNE 12 14 1010.9 - 0.0 - - 10 - - - -
01/12:30am 21.5 NNE 12 14 1011.5 - 0.0 - - 10 - - - -
01/12:00am 21.9 NNE 11 13 1011.7 - 0.0 - - 10 - - - -
 
Date/Time
EDT
Temp

°C
Wind Pressure Rain
since 9am
mm
Weather Cloud Vis
km
Sea
Height
m
Swell
Dir
 
Speed
knots
Gust
knots
hPa Trend Height
m
Period
s
Dir
31/11:30pm 21.9 NNE 11 14 1011.8 - 0.0 - - 10 - - - -
31/11:00pm 22.1 NNE 11 13 1012.1 - 0.0 - - 10 - - - -
31/10:30pm 22.4 NNE 10 14 1012.3 - 0.0 - - 10 - - - -
31/10:00pm 22.5 NNE 11 15 1012.2 - 0.0 - - 10 - - - -
31/09:30pm 22.8 NNE 10 13 1012.3 - 0.0 - - 10 - - - -
31/09:00pm 22.9 NNE 11 15 1012.2 - 0.0 - - 10 - - - -
31/08:30pm 22.9 N 14 18 1011.9 - 0.0 - - 10 - - - -
31/08:00pm 23.1 N 15 19 1011.4 - 0.0 - - 10 - - - -
31/07:30pm 23.2 NNE 16 21 1011.4 - 0.0 - - 10 - - - -
31/07:00pm 23.4 N 18 25 1011.2 - 0.0 - - 10 - - - -
31/06:37pm 23.5 NNE 17 27 1011.0 - 0.0 - - 10 - - - -
31/06:30pm 23.5 NNE 20 28 1010.9 - 0.0 - - 10 - - - -
31/06:00pm 24.2 NNE 19 26 1010.7 - 0.0 - - 10 - - - -
31/05:30pm 24.5 NNE 21 28 1010.3 - 0.0 - - 10 - - - -
31/05:00pm 24.8 NNE 23 28 1010.3 - 0.0 - - 10 - - - -
31/04:30pm 25.5 NNE 21 29 1010.2 - 0.0 - - 10 - - - -
31/04:00pm 25.3 NNE 25 33 1010.4 - 0.0 - - 10 - - - -
31/03:30pm 25.5 NNE 24 31 1010.7 - 0.0 - - 10 - - - -
31/03:00pm 25.5 NNE 23 31 1011.0 - 0.0 - - 10 - - - -
31/02:30pm 26.1 NE 21 30 1011.4 - 0.0 - - 10 - - - -
31/02:00pm 25.8 NE 23 31 1012.0 - 0.0 - - 10 - - - -
31/01:53pm 25.3 NE 22 32 1012.1 - 0.0 - - 10 - - - -
31/01:30pm 25.6 NE 23 29 1012.5 - 0.0 - - 10 - - - -
31/01:00pm 26.3 NNE 21 29 1012.9 - 0.0 - - 10 - - - -
31/12:40pm 26.5 NNE 21 31 1013.1 - 0.0 - - 10 - - - -
31/12:30pm 26.3 NNE 21 29 1013.2 - 0.0 - - 10 - - - -
31/12:00pm 26.1 NNE 20 26 1013.8 - 0.0 - - 10 - - - -
31/11:30am 26.5 NNE 20 25 1014.0 - 0.0 - - 10 - - - -
31/11:00am 26.7 NNE 18 22 1014.2 - 0.0 - - 10 - - - -
31/10:30am 29.1 NE 12 15 1014.5 - 0.0 - - 10 - - - -
31/10:00am 27.3 NE 8 10 1014.6 - 0.0 - - 10 - - - -
31/09:30am 26.1 ENE 7 10 1014.9 - 0.0 - - 10 - - - -
31/09:00am 25.7 NNE 7 9 1015.2 - 0.0 - - 10 - - - -
31/08:30am 24.1 N 5 6 1014.9 - 0.0 - - 10 - - - -
31/08:00am 22.9 N 5 8 1015.1 - 0.0 - - 10 - - - -
31/07:30am 21.6 N 4 6 1015.0 - 0.0 - - 10 - - - -
31/07:00am 18.7 N 3 4 1014.9 - 0.0 - - 10 - - - -
31/06:30am 16.7 N 4 5 1014.8 - 0.0 - - 10 - - - -
31/06:00am 16.7 N 4 4 1014.5 - 0.0 - - 10 - - - -
31/05:30am 16.6 NNE 4 4 1014.2 - 0.0 - - 10 - - - -
31/05:00am 17.2 N 4 6 1013.8 - 0.0 - - 10 - - - -
31/04:30am 17.5 CALM 0 0 1013.7 - 0.0 - - 10 - - - -
31/04:00am 18.1 N 4 5 1013.8 - 0.0 - - 10 - - - -
31/03:30am 19.5 N 6 7 1013.9 - 0.0 - - 10 - - - -
31/03:00am 20.1 NNE 9 12 1014.0 - 0.0 - - 10 - - - -
31/02:30am 20.5 N 9 13 1014.2 - 0.0 - - 10 - - - -
31/02:00am 20.6 N 12 15 1014.7 - 0.0 - - 10 - - - -
31/01:30am 20.3 N 9 11 1015.1 - 0.0 - - 10 - - - -
31/01:00am 20.4 N 11 14 1015.4 - 0.0 - - 10 - - - -
31/12:30am 20.4 NNE 7 9 1015.6 - 0.0 - - 10 - - - -
31/12:00am 20.6 NNE 9 10 1015.7 - 0.0 - - 10 - - - -
 
Date/Time
EDT
Temp

°C
Wind Pressure Rain
since 9am
mm
Weather Cloud Vis
km
Sea
Height
m
Swell
Dir
 
Speed
knots
Gust
knots
hPa Trend Height
m
Period
s
Dir
30/11:30pm 21.0 N 8 12 1015.6 - 0.0 - - 10 - - - -
30/11:00pm 20.5 N 10 12 1015.5 - 0.0 - - 10 - - - -
30/10:30pm 21.1 NNE 9 11 1015.5 - 0.0 - - 10 - - - -
30/10:00pm 21.4 N 9 12 1015.4 - 0.0 - - 10 - - - -
30/09:30pm 21.9 NNE 11 14 1015.4 - 0.0 - - 10 - - - -
30/09:00pm 22.1 NNE 15 19 1015.2 - 0.0 - - 10 - - - -
30/08:30pm 22.2 NNE 10 15 1014.9 - 0.0 - - 10 - - - -
30/08:00pm 22.1 NNE 10 15 1014.4 - 0.0 - - 10 - - - -
30/07:30pm 22.0 NNE 11 16 1013.8 - 0.0 - - 10 - - - -
30/07:00pm 22.3 NNE 14 17 1013.2 - 0.0 - - 10 - - - -
30/06:30pm 22.7 NNE 15 19 1012.8 - 0.0 - - 10 - - - -
30/06:00pm 22.9 NNE 17 23 1012.7 - 0.0 - - 10 - - - -
30/05:30pm 23.6 NNE 21 28 1012.4 - 0.0 - - 10 - - - -
30/05:00pm 23.9 NNE 22 32 1012.3 - 0.0 - - 10 - - - -
30/04:30pm 23.8 NNE 18 24 1012.4 - 0.0 - - 10 - - - -
30/04:00pm 24.1 NE 21 28 1012.5 - 0.0 - - 10 - - - -
30/03:30pm 23.9 NE 22 29 1012.5 - 0.0 - - 10 - - - -
30/03:00pm 24.1 NE 20 27 1012.8 F 0.0 Smoke Clear 20 - - - -
30/02:30pm 24.6 NE 19 27 1013.0 - 0.0 - - 10 - - - -
30/02:00pm 24.6 NE 20 28 1013.5 - 0.0 - - 10 - - - -
30/01:30pm 24.4 NE 22 29 1014.0 - 0.0 - - 10 - - - -
30/01:00pm 24.0 NE 20 26 1014.5 - 0.0 - - 10 - - - -
30/12:30pm 24.1 NE 19 24 1014.9 - 0.0 - - 10 - - - -
30/12:00pm 25.5 NNE 18 23 1015.4 F 0.0 Smoke Clear 20 - - - -
30/11:30am 27.0 N 15 19 1015.7 - 0.0 - - 10 - - - -
30/11:00am 26.5 N 14 19 1016.0 - 0.0 - - 10 - - - -
30/10:30am 25.4 N 13 17 1016.3 - 0.0 - - 10 - - - -
30/10:00am 25.2 N 13 17 1016.8 - 0.0 - - 10 - - - -
30/09:30am 24.3 N 13 16 1017.1 - 0.0 - - 10 - - - -
30/09:00am 23.5 N 11 14 1017.4 S 0.0 Smoke Clear 20 - - - -
30/08:30am 22.3 N 9 13 1017.3 - 0.0 - - 10 - - - -
30/08:00am 21.7 N 7 10 1017.3 - 0.0 - - 10 - - - -
30/07:30am 20.1 NNE 1 5 1017.2 - 0.0 - - 10 - - - -
30/07:00am 17.7 NE 5 6 1017.0 - 0.0 - - 10 - - - -
30/06:30am 15.2 N 6 7 1016.9 - 0.0 - - 10 - - - -
30/06:00am 14.8 N 4 4 1016.8 F 0.0 Fine Clear 30 - - - -
30/05:30am 14.7 N 5 6 1016.7 - 0.0 - - 10 - - - -
30/05:00am 15.1 N 4 5 1016.6 - 0.0 - - 10 - - - -
30/04:30am 15.5 N 4 5 1016.5 - 0.0 - - 10 - - - -
30/04:00am 15.4 NNW 5 6 1016.5 - 0.0 - - 10 - - - -
30/03:30am 15.6 N 3 4 1016.7 - 0.0 - - 10 - - - -
30/03:00am 15.8 NW 4 5 1017.0 - 0.0 - - 10 - - - -
30/02:30am 15.6 CALM 0 0 1016.9 - 0.0 - - 10 - - - -
30/02:00am 15.8 CALM 0 0 1017.1 - 0.0 - - 10 - - - -
30/01:30am 15.9 CALM 0 0 1017.4 - 0.0 - - 10 - - - -
30/01:00am 15.9 CALM 0 0 1017.8 - 0.0 - Partly cloudy 10 - - - -
30/12:30am 15.8 CALM 0 0 1018.1 - 0.0 - - 10 - - - -
30/12:00am 15.9 CALM 0 0 1018.4 - 0.0 - - 10 - - - -
 
Date/Time
EDT
Temp

°C
Wind Pressure Rain
since 9am
mm
Weather Cloud Vis
km
Sea
Height
m
Swell
Dir
 
Speed
knots
Gust
knots
hPa Trend Height
m
Period
s
Dir
29/11:30pm 16.2 CALM 0 0 1018.6 - 0.0 - - 10 - - - -
29/11:00pm 16.7 CALM 0 0 1018.7 - 0.0 - - 10 - - - -
29/10:30pm 16.8 CALM 0 0 1018.6 - 0.0 - - 10 - - - -
29/10:00pm 17.4 CALM 0 0 1018.5 - 0.0 - Partly cloudy 10 - - - -
29/09:30pm 17.6 CALM 0 0 1018.6 - 0.0 - Partly cloudy 10 - - - -
29/09:00pm 18.7 W 4 5 1018.4 - 0.0 - - 10 - - - -
29/08:30pm 19.1 CALM 0 2 1018.0 - 0.0 - Partly cloudy 10 - - - -
29/08:00pm 19.4 SE 3 4 1017.6 - 0.0 - Partly cloudy 10 - - - -
29/07:30pm 20.0 SE 1 3 1017.3 - 0.0 - Partly cloudy 10 - - - -
29/07:00pm 20.6 SE 4 5 1017.1 - 0.0 - - 10 - - - -
29/06:30pm 21.6 SE 5 6 1016.7 - 0.0 - - 10 - - - -
29/06:00pm 22.5 SE 7 9 1016.5 - 0.0 - - 10 - - - -
29/05:30pm 23.0 SE 7 9 1016.0 - 0.0 - - 10 - - - -
29/05:00pm 23.3 SE 7 9 1015.9 - 0.0 - - 10 - - - -
29/04:30pm 23.6 SE 7 9 1015.8 - 0.0 - - 10 - - - -
29/04:00pm 24.0 SSE 7 9 1015.9 - 0.0 - - 10 - - - -
29/03:30pm 23.9 SSE 8 10 1015.9 - 0.0 - - 10 - - - -
29/03:00pm 23.6 SSE 9 12 1016.3 R 0.0 Fine Mostly clear 30 - - - -
29/02:30pm 24.1 SSE 9 13 1016.3 - 0.0 - Mostly clear 10 - - - -
29/02:00pm 24.0 SSE 9 12 1016.5 - 0.0 - Mostly clear 10 - - - -
29/01:30pm 25.0 SSE 11 15 1016.6 - 0.0 - Mostly clear 10 - - - -
29/01:00pm 24.0 SSE 11 15 1016.9 - 0.0 - Mostly clear 10 - - - -
29/12:30pm 24.7 S 10 13 1017.1 - 0.0 - Mostly clear 10 - - - -
29/12:00pm 23.6 S 11 15 1017.4 - 0.0 - Mostly clear 10 - - - -
29/11:00am 24.2 S 11 16 1017.6 - 0.0 - Mostly clear 10 - - - -
29/10:30am 23.9 S 14 17 1017.6 - 0.0 - - 10 - - - -
29/10:00am 23.6 S 13 18 1017.5 - 0.0 - - 10 - - - -
29/09:30am 23.6 SSW 14 18 1017.0 - 0.0 - - 10 - - - -
29/09:00am 23.6 SSW 15 19 1016.7 - - - - 10 - - - -
29/08:30am 22.8 SSW 12 16 1016.4 - - - - 10 - - - -
29/08:00am 22.1 SSW 9 13 1016.1 - - - - 10 - - - -
29/07:30am 20.7 SW 7 7 1015.7 - - - - 10 - - - -
29/07:00am 19.1 SW 6 8 1015.4 - - - - 10 - - - -
29/06:30am 17.3 SW 7 8 1015.1 - - - - 10 - - - -

Other Formats:

Comma delimited format used in spreadsheet applications
http://www.bom.gov.au/fwo/IDN60701/IDN60701.94791.axf

JavaScript Object Notation format (JSON) in row-major order
http://www.bom.gov.au/fwo/IDN60701/IDN60701.94791.json